Terminal Aerodrome Forecast
Issued by NWS

Home | Current Version | Previous Version | Text Only | Print | Product List | Glossary On
Versions: 1 2 3 4 5 6 7 8 9 10 11 12 13 14 15
231
FTUS43 KGRR 271140
TAFBTL
TAF
KBTL 271140Z 2712/2812 01006KT P6SM SCT035
     FM271800 01008KT P6SM VCSH BKN040
     FM280000 04005KT P6SM BKN100=

USA.gov is the U.S. government's official web portal to all federal, state and local government web resources and services.